sensor_id;sensor_type;location;lat;lon;timestamp;P1;durP1;ratioP1;P2;durP2;ratioP2
20976;SDS011;10647;51.016;3.720;2022-09-03T00:01:42;14.93;;;11.43;;
20976;SDS011;10647;51.016;3.720;2022-09-03T00:07:29;15.30;;;11.30;;
20976;SDS011;10647;51.016;3.720;2022-09-03T00:09:59;15.70;;;10.68;;
20976;SDS011;10647;51.016;3.720;2022-09-03T00:12:31;17.82;;;11.70;;
20976;SDS011;10647;51.016;3.720;2022-09-03T00:17:43;17.77;;;13.25;;
20976;SDS011;10647;51.016;3.720;2022-09-03T00:20:24;14.35;;;11.80;;
20976;SDS011;10647;51.016;3.720;2022-09-03T00:22:49;15.23;;;11.90;;
20976;SDS011;10647;51.016;3.720;2022-09-03T00:25:21;17.57;;;12.65;;
20976;SDS011;10647;51.016;3.720;2022-09-03T00:27:52;15.50;;;12.13;;
20976;SDS011;10647;51.016;3.720;2022-09-03T00:30:22;13.65;;;12.10;;
20976;SDS011;10647;51.016;3.720;2022-09-03T00:32:55;16.87;;;12.23;;
20976;SDS011;10647;51.016;3.720;2022-09-03T00:35:30;16.45;;;13.45;;
20976;SDS011;10647;51.016;3.720;2022-09-03T00:38:01;16.32;;;12.63;;
20976;SDS011;10647;51.016;3.720;2022-09-03T00:43:09;16.25;;;12.40;;
20976;SDS011;10647;51.016;3.720;2022-09-03T00:51:35;19.40;;;13.13;;
20976;SDS011;10647;51.016;3.720;2022-09-03T00:54:05;16.65;;;13.50;;
20976;SDS011;10647;51.016;3.720;2022-09-03T00:57:11;15.03;;;13.13;;
20976;SDS011;10647;51.016;3.720;2022-09-03T01:08:04;15.05;;;11.97;;
20976;SDS011;10647;51.016;3.720;2022-09-03T01:16:38;18.65;;;12.40;;
20976;SDS011;10647;51.016;3.720;2022-09-03T01:33:37;14.00;;;11.50;;
20976;SDS011;10647;51.016;3.720;2022-09-03T01:36:29;13.03;;;10.95;;
20976;SDS011;10647;51.016;3.720;2022-09-03T01:39:13;17.62;;;11.12;;
20976;SDS011;10647;51.016;3.720;2022-09-03T01:42:07;13.10;;;11.40;;
20976;SDS011;10647;51.016;3.720;2022-09-03T01:50:26;12.23;;;10.85;;
20976;SDS011;10647;51.016;3.720;2022-09-03T01:53:15;13.98;;;11.45;;
20976;SDS011;10647;51.016;3.720;2022-09-03T01:58:42;15.95;;;11.93;;
20976;SDS011;10647;51.016;3.720;2022-09-03T02:01:21;16.55;;;12.55;;
20976;SDS011;10647;51.016;3.720;2022-09-03T02:03:51;14.50;;;12.28;;
20976;SDS011;10647;51.016;3.720;2022-09-03T02:06:21;16.42;;;12.93;;
20976;SDS011;10647;51.016;3.720;2022-09-03T02:08:49;17.27;;;12.43;;
20976;SDS011;10647;51.016;3.720;2022-09-03T02:11:17;15.78;;;12.43;;
20976;SDS011;10647;51.016;3.720;2022-09-03T02:13:46;18.12;;;12.23;;
20976;SDS011;10647;51.016;3.720;2022-09-03T02:16:17;16.00;;;12.07;;
20976;SDS011;10647;51.016;3.720;2022-09-03T02:18:47;15.80;;;11.60;;
20976;SDS011;10647;51.016;3.720;2022-09-03T02:21:23;15.25;;;11.22;;
20976;SDS011;10647;51.016;3.720;2022-09-03T02:23:53;17.07;;;11.75;;
20976;SDS011;10647;51.016;3.720;2022-09-03T02:26:22;20.08;;;11.53;;
20976;SDS011;10647;51.016;3.720;2022-09-03T02:28:50;13.62;;;10.88;;
20976;SDS011;10647;51.016;3.720;2022-09-03T02:31:19;14.85;;;11.68;;
20976;SDS011;10647;51.016;3.720;2022-09-03T02:33:47;12.95;;;11.03;;
20976;SDS011;10647;51.016;3.720;2022-09-03T02:36:17;13.88;;;12.13;;
20976;SDS011;10647;51.016;3.720;2022-09-03T02:38:47;14.30;;;11.22;;
20976;SDS011;10647;51.016;3.720;2022-09-03T02:41:14;16.30;;;12.13;;
20976;SDS011;10647;51.016;3.720;2022-09-03T02:46:23;17.75;;;12.20;;
20976;SDS011;10647;51.016;3.720;2022-09-03T02:49:03;15.90;;;11.70;;
20976;SDS011;10647;51.016;3.720;2022-09-03T02:51:40;16.80;;;11.80;;
20976;SDS011;10647;51.016;3.720;2022-09-03T02:54:07;12.65;;;11.08;;
20976;SDS011;10647;51.016;3.720;2022-09-03T02:56:35;14.53;;;12.05;;
20976;SDS011;10647;51.016;3.720;2022-09-03T02:59:04;18.37;;;11.38;;
20976;SDS011;10647;51.016;3.720;2022-09-03T03:01:33;16.35;;;11.45;;
20976;SDS011;10647;51.016;3.720;2022-09-03T03:04:02;17.23;;;11.88;;
20976;SDS011;10647;51.016;3.720;2022-09-03T03:06:35;15.75;;;10.98;;
20976;SDS011;10647;51.016;3.720;2022-09-03T03:09:03;14.73;;;11.70;;
20976;SDS011;10647;51.016;3.720;2022-09-03T03:11:31;13.28;;;10.60;;
20976;SDS011;10647;51.016;3.720;2022-09-03T03:14:00;16.42;;;11.85;;
20976;SDS011;10647;51.016;3.720;2022-09-03T03:16:27;13.48;;;11.73;;
20976;SDS011;10647;51.016;3.720;2022-09-03T03:18:55;15.72;;;12.13;;
20976;SDS011;10647;51.016;3.720;2022-09-03T03:21:23;16.82;;;12.53;;
20976;SDS011;10647;51.016;3.720;2022-09-03T03:23:50;16.25;;;11.18;;
20976;SDS011;10647;51.016;3.720;2022-09-03T03:26:18;16.67;;;11.90;;
20976;SDS011;10647;51.016;3.720;2022-09-03T03:28:48;14.15;;;11.12;;
20976;SDS011;10647;51.016;3.720;2022-09-03T03:31:19;14.10;;;11.55;;
20976;SDS011;10647;51.016;3.720;2022-09-03T03:33:51;15.23;;;11.15;;
20976;SDS011;10647;51.016;3.720;2022-09-03T03:36:19;17.23;;;11.35;;
20976;SDS011;10647;51.016;3.720;2022-09-03T03:38:48;13.20;;;11.12;;
20976;SDS011;10647;51.016;3.720;2022-09-03T03:41:19;14.07;;;11.05;;
20976;SDS011;10647;51.016;3.720;2022-09-03T03:43:51;19.70;;;11.88;;
20976;SDS011;10647;51.016;3.720;2022-09-03T03:46:21;13.83;;;11.75;;
20976;SDS011;10647;51.016;3.720;2022-09-03T03:48:50;18.17;;;11.20;;
20976;SDS011;10647;51.016;3.720;2022-09-03T03:51:18;13.65;;;11.45;;
20976;SDS011;10647;51.016;3.720;2022-09-03T03:53:45;14.28;;;10.98;;
20976;SDS011;10647;51.016;3.720;2022-09-03T03:56:14;15.05;;;11.05;;
20976;SDS011;10647;51.016;3.720;2022-09-03T03:58:41;13.95;;;10.53;;
20976;SDS011;10647;51.016;3.720;2022-09-03T04:01:13;14.13;;;11.30;;
20976;SDS011;10647;51.016;3.720;2022-09-03T04:03:45;12.75;;;10.78;;
20976;SDS011;10647;51.016;3.720;2022-09-03T04:06:14;13.35;;;11.20;;
20976;SDS011;10647;51.016;3.720;2022-09-03T04:08:44;16.57;;;11.55;;
20976;SDS011;10647;51.016;3.720;2022-09-03T04:11:14;17.67;;;11.93;;
20976;SDS011;10647;51.016;3.720;2022-09-03T04:13:43;18.23;;;11.60;;
20976;SDS011;10647;51.016;3.720;2022-09-03T04:16:19;13.80;;;11.85;;
20976;SDS011;10647;51.016;3.720;2022-09-03T04:18:48;15.25;;;12.15;;
20976;SDS011;10647;51.016;3.720;2022-09-03T04:21:18;16.37;;;12.58;;
20976;SDS011;10647;51.016;3.720;2022-09-03T04:23:51;19.15;;;13.35;;
20976;SDS011;10647;51.016;3.720;2022-09-03T04:26:20;20.40;;;14.07;;
20976;SDS011;10647;51.016;3.720;2022-09-03T04:28:54;19.27;;;14.13;;
20976;SDS011;10647;51.016;3.720;2022-09-03T04:31:21;20.92;;;14.63;;
20976;SDS011;10647;51.016;3.720;2022-09-03T04:33:55;18.98;;;14.98;;
20976;SDS011;10647;51.016;3.720;2022-09-03T04:36:23;18.40;;;14.15;;
20976;SDS011;10647;51.016;3.720;2022-09-03T04:38:53;21.23;;;15.20;;
20976;SDS011;10647;51.016;3.720;2022-09-03T04:41:22;21.25;;;16.17;;
20976;SDS011;10647;51.016;3.720;2022-09-03T04:43:55;24.57;;;15.85;;
20976;SDS011;10647;51.016;3.720;2022-09-03T04:46:24;19.00;;;14.83;;
20976;SDS011;10647;51.016;3.720;2022-09-03T04:48:54;23.22;;;16.10;;
20976;SDS011;10647;51.016;3.720;2022-09-03T04:51:24;21.82;;;15.85;;
20976;SDS011;10647;51.016;3.720;2022-09-03T04:53:54;21.30;;;15.45;;
20976;SDS011;10647;51.016;3.720;2022-09-03T04:56:24;22.02;;;15.20;;
20976;SDS011;10647;51.016;3.720;2022-09-03T04:59:01;22.93;;;16.37;;
20976;SDS011;10647;51.016;3.720;2022-09-03T05:01:31;22.87;;;16.55;;
20976;SDS011;10647;51.016;3.720;2022-09-03T05:04:00;28.00;;;16.75;;
20976;SDS011;10647;51.016;3.720;2022-09-03T05:06:29;22.20;;;16.35;;
20976;SDS011;10647;51.016;3.720;2022-09-03T05:08:58;23.45;;;16.40;;
20976;SDS011;10647;51.016;3.720;2022-09-03T05:11:27;21.85;;;16.02;;
20976;SDS011;10647;51.016;3.720;2022-09-03T05:13:58;21.82;;;16.27;;
20976;SDS011;10647;51.016;3.720;2022-09-03T05:16:26;23.22;;;17.15;;
20976;SDS011;10647;51.016;3.720;2022-09-03T05:18:56;22.60;;;16.62;;
20976;SDS011;10647;51.016;3.720;2022-09-03T05:21:24;22.60;;;17.55;;
20976;SDS011;10647;51.016;3.720;2022-09-03T05:23:53;22.73;;;17.60;;
20976;SDS011;10647;51.016;3.720;2022-09-03T05:26:22;24.92;;;18.02;;
20976;SDS011;10647;51.016;3.720;2022-09-03T05:28:52;24.98;;;17.45;;
20976;SDS011;10647;51.016;3.720;2022-09-03T05:31:22;23.57;;;16.85;;
20976;SDS011;10647;51.016;3.720;2022-09-03T05:33:51;26.75;;;18.45;;
20976;SDS011;10647;51.016;3.720;2022-09-03T05:36:22;22.13;;;17.02;;
20976;SDS011;10647;51.016;3.720;2022-09-03T05:38:51;22.55;;;16.32;;
20976;SDS011;10647;51.016;3.720;2022-09-03T05:41:19;24.37;;;18.10;;
20976;SDS011;10647;51.016;3.720;2022-09-03T05:43:48;27.20;;;17.92;;
20976;SDS011;10647;51.016;3.720;2022-09-03T05:46:21;24.90;;;17.50;;
20976;SDS011;10647;51.016;3.720;2022-09-03T05:48:57;28.95;;;18.82;;
20976;SDS011;10647;51.016;3.720;2022-09-03T05:51:31;24.60;;;18.23;;
20976;SDS011;10647;51.016;3.720;2022-09-03T05:54:01;27.58;;;18.02;;
20976;SDS011;10647;51.016;3.720;2022-09-03T05:56:29;24.77;;;17.70;;
20976;SDS011;10647;51.016;3.720;2022-09-03T05:59:01;25.23;;;18.77;;
20976;SDS011;10647;51.016;3.720;2022-09-03T06:01:33;26.40;;;18.82;;
20976;SDS011;10647;51.016;3.720;2022-09-03T06:04:03;23.07;;;18.45;;
20976;SDS011;10647;51.016;3.720;2022-09-03T06:06:33;24.32;;;19.20;;
20976;SDS011;10647;51.016;3.720;2022-09-03T06:09:04;28.12;;;18.98;;
20976;SDS011;10647;51.016;3.720;2022-09-03T06:11:37;26.97;;;18.62;;
20976;SDS011;10647;51.016;3.720;2022-09-03T06:14:08;25.20;;;19.00;;
20976;SDS011;10647;51.016;3.720;2022-09-03T06:16:37;26.27;;;18.90;;
20976;SDS011;10647;51.016;3.720;2022-09-03T06:19:11;27.95;;;19.27;;
20976;SDS011;10647;51.016;3.720;2022-09-03T06:21:41;24.90;;;18.67;;
20976;SDS011;10647;51.016;3.720;2022-09-03T06:24:19;26.27;;;18.42;;
20976;SDS011;10647;51.016;3.720;2022-09-03T06:26:52;26.90;;;18.67;;
20976;SDS011;10647;51.016;3.720;2022-09-03T06:29:20;25.30;;;18.77;;
20976;SDS011;10647;51.016;3.720;2022-09-03T06:31:49;25.65;;;18.77;;
20976;SDS011;10647;51.016;3.720;2022-09-03T06:34:16;27.65;;;18.95;;
20976;SDS011;10647;51.016;3.720;2022-09-03T06:36:44;26.12;;;19.25;;
20976;SDS011;10647;51.016;3.720;2022-09-03T06:39:12;24.67;;;18.40;;
20976;SDS011;10647;51.016;3.720;2022-09-03T06:41:40;25.97;;;18.57;;
20976;SDS011;10647;51.016;3.720;2022-09-03T06:44:08;24.87;;;18.92;;
20976;SDS011;10647;51.016;3.720;2022-09-03T06:46:38;29.67;;;20.32;;
20976;SDS011;10647;51.016;3.720;2022-09-03T06:49:09;32.23;;;19.92;;
20976;SDS011;10647;51.016;3.720;2022-09-03T06:51:38;27.07;;;20.97;;
20976;SDS011;10647;51.016;3.720;2022-09-03T06:54:09;21.55;;;17.60;;
20976;SDS011;10647;51.016;3.720;2022-09-03T06:56:38;26.27;;;18.67;;
20976;SDS011;10647;51.016;3.720;2022-09-03T06:59:11;23.27;;;17.92;;
20976;SDS011;10647;51.016;3.720;2022-09-03T07:01:41;30.20;;;18.48;;
20976;SDS011;10647;51.016;3.720;2022-09-03T07:04:10;23.10;;;17.70;;
20976;SDS011;10647;51.016;3.720;2022-09-03T07:06:44;23.62;;;17.07;;
20976;SDS011;10647;51.016;3.720;2022-09-03T07:09:11;25.77;;;17.12;;
20976;SDS011;10647;51.016;3.720;2022-09-03T07:14:14;24.07;;;16.00;;
20976;SDS011;10647;51.016;3.720;2022-09-03T07:16:46;21.77;;;15.75;;
20976;SDS011;10647;51.016;3.720;2022-09-03T07:19:15;18.67;;;14.75;;
20976;SDS011;10647;51.016;3.720;2022-09-03T07:21:48;19.95;;;14.93;;
20976;SDS011;10647;51.016;3.720;2022-09-03T07:24:17;23.73;;;15.13;;
20976;SDS011;10647;51.016;3.720;2022-09-03T07:26:49;19.15;;;14.47;;
20976;SDS011;10647;51.016;3.720;2022-09-03T07:29:17;20.82;;;15.43;;
20976;SDS011;10647;51.016;3.720;2022-09-03T07:31:48;18.77;;;14.38;;
20976;SDS011;10647;51.016;3.720;2022-09-03T07:34:16;15.90;;;12.73;;
20976;SDS011;10647;51.016;3.720;2022-09-03T07:36:45;21.30;;;13.55;;
20976;SDS011;10647;51.016;3.720;2022-09-03T07:39:16;17.70;;;13.60;;
20976;SDS011;10647;51.016;3.720;2022-09-03T07:44:26;17.35;;;12.98;;
20976;SDS011;10647;51.016;3.720;2022-09-03T07:46:56;18.37;;;13.43;;
20976;SDS011;10647;51.016;3.720;2022-09-03T07:49:26;22.30;;;13.72;;
20976;SDS011;10647;51.016;3.720;2022-09-03T07:52:00;19.17;;;12.70;;
20976;SDS011;10647;51.016;3.720;2022-09-03T07:54:29;21.62;;;12.80;;
20976;SDS011;10647;51.016;3.720;2022-09-03T07:57:00;17.77;;;13.00;;
20976;SDS011;10647;51.016;3.720;2022-09-03T07:59:35;16.23;;;12.93;;
20976;SDS011;10647;51.016;3.720;2022-09-03T08:02:04;17.92;;;12.23;;
20976;SDS011;10647;51.016;3.720;2022-09-03T08:04:34;19.15;;;11.60;;
20976;SDS011;10647;51.016;3.720;2022-09-03T08:07:01;15.08;;;11.05;;
20976;SDS011;10647;51.016;3.720;2022-09-03T08:09:30;15.58;;;11.53;;
20976;SDS011;10647;51.016;3.720;2022-09-03T08:12:04;14.15;;;10.63;;
20976;SDS011;10647;51.016;3.720;2022-09-03T08:14:32;14.30;;;9.73;;
20976;SDS011;10647;51.016;3.720;2022-09-03T08:16:59;13.83;;;9.75;;
20976;SDS011;10647;51.016;3.720;2022-09-03T08:19:27;11.80;;;9.90;;
20976;SDS011;10647;51.016;3.720;2022-09-03T08:21:54;13.20;;;9.48;;
20976;SDS011;10647;51.016;3.720;2022-09-03T08:24:22;12.85;;;9.55;;
20976;SDS011;10647;51.016;3.720;2022-09-03T08:26:51;11.53;;;8.83;;
20976;SDS011;10647;51.016;3.720;2022-09-03T08:29:20;13.53;;;9.68;;
20976;SDS011;10647;51.016;3.720;2022-09-03T08:31:48;11.88;;;8.85;;
20976;SDS011;10647;51.016;3.720;2022-09-03T08:34:15;9.98;;;8.68;;
20976;SDS011;10647;51.016;3.720;2022-09-03T08:36:43;13.90;;;9.35;;
20976;SDS011;10647;51.016;3.720;2022-09-03T08:39:11;13.32;;;9.55;;
20976;SDS011;10647;51.016;3.720;2022-09-03T08:52:28;16.50;;;10.53;;
20976;SDS011;10647;51.016;3.720;2022-09-03T08:55:14;13.93;;;10.68;;
20976;SDS011;10647;51.016;3.720;2022-09-03T08:57:42;16.85;;;9.73;;
20976;SDS011;10647;51.016;3.720;2022-09-03T09:00:11;13.10;;;10.03;;
20976;SDS011;10647;51.016;3.720;2022-09-03T09:05:24;10.70;;;9.33;;
20976;SDS011;10647;51.016;3.720;2022-09-03T09:08:09;11.93;;;9.25;;
20976;SDS011;10647;51.016;3.720;2022-09-03T09:10:42;12.88;;;9.30;;
20976;SDS011;10647;51.016;3.720;2022-09-03T09:13:14;11.50;;;9.28;;
20976;SDS011;10647;51.016;3.720;2022-09-03T09:21:30;13.85;;;9.85;;
20976;SDS011;10647;51.016;3.720;2022-09-03T09:24:03;12.55;;;9.15;;
20976;SDS011;10647;51.016;3.720;2022-09-03T09:26:34;10.93;;;9.48;;
20976;SDS011;10647;51.016;3.720;2022-09-03T09:29:03;10.43;;;9.28;;
20976;SDS011;10647;51.016;3.720;2022-09-03T09:31:32;12.53;;;7.97;;
20976;SDS011;10647;51.016;3.720;2022-09-03T09:34:03;13.48;;;8.50;;
20976;SDS011;10647;51.016;3.720;2022-09-03T09:36:46;11.80;;;8.58;;
20976;SDS011;10647;51.016;3.720;2022-09-03T09:39:08;12.23;;;8.35;;
20976;SDS011;10647;51.016;3.720;2022-09-03T09:41:36;12.53;;;7.80;;
20976;SDS011;10647;51.016;3.720;2022-09-03T09:44:06;10.38;;;7.50;;
20976;SDS011;10647;51.016;3.720;2022-09-03T09:46:37;11.00;;;7.33;;
20976;SDS011;10647;51.016;3.720;2022-09-03T09:52:15;10.28;;;7.50;;
20976;SDS011;10647;51.016;3.720;2022-09-03T09:54:37;12.47;;;7.30;;
20976;SDS011;10647;51.016;3.720;2022-09-03T09:57:07;8.25;;;6.80;;
20976;SDS011;10647;51.016;3.720;2022-09-03T09:59:45;8.93;;;6.62;;
20976;SDS011;10647;51.016;3.720;2022-09-03T10:02:24;8.33;;;6.10;;
20976;SDS011;10647;51.016;3.720;2022-09-03T10:05:36;8.73;;;7.45;;
20976;SDS011;10647;51.016;3.720;2022-09-03T10:07:30;12.18;;;7.05;;
20976;SDS011;10647;51.016;3.720;2022-09-03T10:10:03;9.33;;;6.50;;
20976;SDS011;10647;51.016;3.720;2022-09-03T10:15:38;8.80;;;7.20;;
20976;SDS011;10647;51.016;3.720;2022-09-03T10:18:22;9.10;;;7.30;;
20976;SDS011;10647;51.016;3.720;2022-09-03T10:20:56;14.15;;;6.28;;
20976;SDS011;10647;51.016;3.720;2022-09-03T10:23:39;7.58;;;6.00;;
20976;SDS011;10647;51.016;3.720;2022-09-03T10:26:22;8.15;;;5.65;;
20976;SDS011;10647;51.016;3.720;2022-09-03T10:29:00;8.48;;;4.78;;
20976;SDS011;10647;51.016;3.720;2022-09-03T10:34:05;10.68;;;4.95;;
20976;SDS011;10647;51.016;3.720;2022-09-03T10:39:24;10.10;;;5.15;;
20976;SDS011;10647;51.016;3.720;2022-09-03T10:44:57;7.72;;;5.92;;
20976;SDS011;10647;51.016;3.720;2022-09-03T10:50:13;7.28;;;5.60;;
20976;SDS011;10647;51.016;3.720;2022-09-03T10:53:05;8.80;;;6.00;;
20976;SDS011;10647;51.016;3.720;2022-09-03T10:55:48;7.97;;;6.72;;
20976;SDS011;10647;51.016;3.720;2022-09-03T11:01:08;6.80;;;5.35;;
20976;SDS011;10647;51.016;3.720;2022-09-03T11:03:44;8.88;;;6.30;;
20976;SDS011;10647;51.016;3.720;2022-09-03T11:06:34;9.63;;;7.17;;
20976;SDS011;10647;51.016;3.720;2022-09-03T11:09:15;9.00;;;6.30;;
20976;SDS011;10647;51.016;3.720;2022-09-03T11:11:48;7.80;;;6.50;;
20976;SDS011;10647;51.016;3.720;2022-09-03T11:14:22;8.30;;;6.42;;
20976;SDS011;10647;51.016;3.720;2022-09-03T11:17:15;9.70;;;7.15;;
20976;SDS011;10647;51.016;3.720;2022-09-03T11:19:44;9.10;;;7.30;;
20976;SDS011;10647;51.016;3.720;2022-09-03T11:22:10;11.40;;;7.55;;
20976;SDS011;10647;51.016;3.720;2022-09-03T11:24:41;10.72;;;8.58;;
20976;SDS011;10647;51.016;3.720;2022-09-03T11:27:19;9.83;;;8.15;;
20976;SDS011;10647;51.016;3.720;2022-09-03T11:32:39;12.10;;;8.90;;
20976;SDS011;10647;51.016;3.720;2022-09-03T11:35:11;10.25;;;7.70;;
20976;SDS011;10647;51.016;3.720;2022-09-03T11:37:58;9.78;;;8.48;;
20976;SDS011;10647;51.016;3.720;2022-09-03T11:40:28;7.83;;;6.90;;
20976;SDS011;10647;51.016;3.720;2022-09-03T11:43:27;8.73;;;6.72;;
20976;SDS011;10647;51.016;3.720;2022-09-03T11:45:41;6.92;;;5.97;;
20976;SDS011;10647;51.016;3.720;2022-09-03T11:48:27;8.40;;;6.50;;
20976;SDS011;10647;51.016;3.720;2022-09-03T11:51:18;8.75;;;6.62;;
20976;SDS011;10647;51.016;3.720;2022-09-03T11:54:01;11.03;;;7.22;;
20976;SDS011;10647;51.016;3.720;2022-09-03T11:56:34;6.62;;;5.47;;
20976;SDS011;10647;51.016;3.720;2022-09-03T11:59:04;6.90;;;6.10;;
20976;SDS011;10647;51.016;3.720;2022-09-03T12:01:46;8.28;;;5.60;;
20976;SDS011;10647;51.016;3.720;2022-09-03T12:04:31;9.35;;;6.45;;
20976;SDS011;10647;51.016;3.720;2022-09-03T12:13:14;9.93;;;7.00;;
20976;SDS011;10647;51.016;3.720;2022-09-03T12:18:38;10.32;;;5.83;;
20976;SDS011;10647;51.016;3.720;2022-09-03T12:21:03;8.08;;;5.30;;
20976;SDS011;10647;51.016;3.720;2022-09-03T12:26:13;6.45;;;5.30;;
20976;SDS011;10647;51.016;3.720;2022-09-03T12:28:44;7.80;;;6.12;;
20976;SDS011;10647;51.016;3.720;2022-09-03T12:31:27;12.18;;;8.15;;
20976;SDS011;10647;51.016;3.720;2022-09-03T12:34:00;10.05;;;6.83;;
20976;SDS011;10647;51.016;3.720;2022-09-03T12:36:37;9.38;;;7.05;;
20976;SDS011;10647;51.016;3.720;2022-09-03T12:39:12;9.35;;;6.72;;
20976;SDS011;10647;51.016;3.720;2022-09-03T12:42:01;9.70;;;6.20;;
20976;SDS011;10647;51.016;3.720;2022-09-03T12:47:13;7.15;;;5.45;;
20976;SDS011;10647;51.016;3.720;2022-09-03T12:49:46;6.60;;;4.83;;
20976;SDS011;10647;51.016;3.720;2022-09-03T12:52:26;6.90;;;5.10;;
20976;SDS011;10647;51.016;3.720;2022-09-03T12:58:08;6.42;;;4.97;;
20976;SDS011;10647;51.016;3.720;2022-09-03T13:00:48;5.33;;;4.08;;
20976;SDS011;10647;51.016;3.720;2022-09-03T13:03:31;4.47;;;3.42;;
20976;SDS011;10647;51.016;3.720;2022-09-03T13:06:01;5.65;;;3.40;;
20976;SDS011;10647;51.016;3.720;2022-09-03T13:11:25;5.45;;;4.00;;
20976;SDS011;10647;51.016;3.720;2022-09-03T13:14:00;5.10;;;4.10;;
20976;SDS011;10647;51.016;3.720;2022-09-03T13:16:46;5.10;;;4.35;;
20976;SDS011;10647;51.016;3.720;2022-09-03T13:19:21;9.45;;;4.30;;
20976;SDS011;10647;51.016;3.720;2022-09-03T13:28:08;5.92;;;4.10;;
20976;SDS011;10647;51.016;3.720;2022-09-03T13:33:42;4.45;;;4.00;;
20976;SDS011;10647;51.016;3.720;2022-09-03T13:41:45;4.92;;;3.42;;
20976;SDS011;10647;51.016;3.720;2022-09-03T13:47:12;6.50;;;4.22;;
20976;SDS011;10647;51.016;3.720;2022-09-03T13:55:49;4.62;;;3.85;;
20976;SDS011;10647;51.016;3.720;2022-09-03T13:58:37;4.62;;;3.70;;
20976;SDS011;10647;51.016;3.720;2022-09-03T14:01:26;5.62;;;3.10;;
20976;SDS011;10647;51.016;3.720;2022-09-03T14:04:13;3.83;;;2.70;;
20976;SDS011;10647;51.016;3.720;2022-09-03T14:06:43;4.12;;;2.58;;
20976;SDS011;10647;51.016;3.720;2022-09-03T14:13:12;3.45;;;2.55;;
20976;SDS011;10647;51.016;3.720;2022-09-03T14:20:56;2.67;;;1.80;;
20976;SDS011;10647;51.016;3.720;2022-09-03T14:26:06;2.40;;;1.90;;
20976;SDS011;10647;51.016;3.720;2022-09-03T14:28:36;4.47;;;2.20;;
20976;SDS011;10647;51.016;3.720;2022-09-03T14:31:17;2.50;;;1.70;;
20976;SDS011;10647;51.016;3.720;2022-09-03T14:40:15;3.90;;;1.90;;
20976;SDS011;10647;51.016;3.720;2022-09-03T14:57:24;3.40;;;1.75;;
20976;SDS011;10647;51.016;3.720;2022-09-03T14:59:57;3.12;;;2.10;;
20976;SDS011;10647;51.016;3.720;2022-09-03T15:10:56;2.00;;;1.80;;
20976;SDS011;10647;51.016;3.720;2022-09-03T15:13:26;3.37;;;2.12;;
20976;SDS011;10647;51.016;3.720;2022-09-03T15:21:51;5.25;;;1.92;;
20976;SDS011;10647;51.016;3.720;2022-09-03T15:32:48;4.65;;;1.95;;
20976;SDS011;10647;51.016;3.720;2022-09-03T15:35:29;4.87;;;2.33;;
20976;SDS011;10647;51.016;3.720;2022-09-03T15:40:49;2.95;;;2.15;;
20976;SDS011;10647;51.016;3.720;2022-09-03T15:43:28;5.28;;;2.08;;
20976;SDS011;10647;51.016;3.720;2022-09-03T15:46:02;3.15;;;1.98;;
20976;SDS011;10647;51.016;3.720;2022-09-03T15:48:50;3.65;;;1.98;;
20976;SDS011;10647;51.016;3.720;2022-09-03T15:51:29;3.08;;;2.10;;
20976;SDS011;10647;51.016;3.720;2022-09-03T15:54:15;3.05;;;2.08;;
20976;SDS011;10647;51.016;3.720;2022-09-03T15:57:00;2.50;;;1.82;;
20976;SDS011;10647;51.016;3.720;2022-09-03T15:59:40;4.03;;;1.87;;
20976;SDS011;10647;51.016;3.720;2022-09-03T16:02:17;6.37;;;2.80;;
20976;SDS011;10647;51.016;3.720;2022-09-03T16:07:53;4.15;;;2.40;;
20976;SDS011;10647;51.016;3.720;2022-09-03T16:10:31;6.55;;;2.80;;
20976;SDS011;10647;51.016;3.720;2022-09-03T16:19:04;7.67;;;3.50;;
20976;SDS011;10647;51.016;3.720;2022-09-03T16:21:50;4.60;;;2.72;;
20976;SDS011;10647;51.016;3.720;2022-09-03T16:27:24;6.22;;;3.08;;
20976;SDS011;10647;51.016;3.720;2022-09-03T16:30:01;5.47;;;2.80;;
20976;SDS011;10647;51.016;3.720;2022-09-03T16:32:34;4.90;;;2.37;;
20976;SDS011;10647;51.016;3.720;2022-09-03T16:43:55;5.17;;;2.65;;
20976;SDS011;10647;51.016;3.720;2022-09-03T16:51:55;4.83;;;2.62;;
20976;SDS011;10647;51.016;3.720;2022-09-03T17:00:13;4.60;;;2.90;;
20976;SDS011;10647;51.016;3.720;2022-09-03T17:08:30;4.75;;;3.08;;
20976;SDS011;10647;51.016;3.720;2022-09-03T17:14:26;4.50;;;2.90;;
20976;SDS011;10647;51.016;3.720;2022-09-03T17:25:39;7.65;;;3.10;;
20976;SDS011;10647;51.016;3.720;2022-09-03T17:28:10;4.75;;;2.70;;
20976;SDS011;10647;51.016;3.720;2022-09-03T17:31:09;3.77;;;2.90;;
20976;SDS011;10647;51.016;3.720;2022-09-03T17:33:42;3.92;;;2.70;;
20976;SDS011;10647;51.016;3.720;2022-09-03T17:36:15;3.77;;;2.67;;
20976;SDS011;10647;51.016;3.720;2022-09-03T17:39:03;3.00;;;2.45;;
20976;SDS011;10647;51.016;3.720;2022-09-03T17:41:54;3.85;;;2.33;;
20976;SDS011;10647;51.016;3.720;2022-09-03T17:52:59;3.08;;;1.90;;
20976;SDS011;10647;51.016;3.720;2022-09-03T18:01:16;3.10;;;2.33;;
20976;SDS011;10647;51.016;3.720;2022-09-03T18:03:51;4.30;;;2.30;;
20976;SDS011;10647;51.016;3.720;2022-09-03T18:14:44;2.67;;;2.25;;
20976;SDS011;10647;51.016;3.720;2022-09-03T18:20:25;5.83;;;2.20;;
20976;SDS011;10647;51.016;3.720;2022-09-03T18:23:17;3.47;;;2.30;;
20976;SDS011;10647;51.016;3.720;2022-09-03T18:26:10;5.40;;;2.58;;
20976;SDS011;10647;51.016;3.720;2022-09-03T18:28:58;4.47;;;2.27;;
20976;SDS011;10647;51.016;3.720;2022-09-03T18:31:48;2.50;;;1.90;;
20976;SDS011;10647;51.016;3.720;2022-09-03T18:34:35;4.35;;;2.40;;
20976;SDS011;10647;51.016;3.720;2022-09-03T18:37:24;3.12;;;2.10;;
20976;SDS011;10647;51.016;3.720;2022-09-03T18:40:20;3.33;;;2.45;;
20976;SDS011;10647;51.016;3.720;2022-09-03T18:43:13;3.25;;;2.10;;
20976;SDS011;10647;51.016;3.720;2022-09-03T18:46:04;3.02;;;2.15;;
20976;SDS011;10647;51.016;3.720;2022-09-03T18:49:14;6.37;;;2.30;;
20976;SDS011;10647;51.016;3.720;2022-09-03T18:52:09;3.80;;;2.25;;
20976;SDS011;10647;51.016;3.720;2022-09-03T18:54:59;7.65;;;2.85;;
20976;SDS011;10647;51.016;3.720;2022-09-03T19:07:36;3.80;;;2.72;;
20976;SDS011;10647;51.016;3.720;2022-09-03T19:11:01;5.90;;;2.58;;
20976;SDS011;10647;51.016;3.720;2022-09-03T19:13:41;5.50;;;2.90;;
20976;SDS011;10647;51.016;3.720;2022-09-03T19:22:48;4.80;;;3.47;;
20976;SDS011;10647;51.016;3.720;2022-09-03T19:25:35;5.80;;;3.22;;
20976;SDS011;10647;51.016;3.720;2022-09-03T19:28:21;6.50;;;3.95;;
20976;SDS011;10647;51.016;3.720;2022-09-03T19:31:24;6.40;;;3.87;;
20976;SDS011;10647;51.016;3.720;2022-09-03T19:37:36;6.65;;;3.45;;
20976;SDS011;10647;51.016;3.720;2022-09-03T19:40:37;7.12;;;3.70;;
20976;SDS011;10647;51.016;3.720;2022-09-03T19:46:32;7.05;;;3.77;;
20976;SDS011;10647;51.016;3.720;2022-09-03T19:55:54;5.33;;;3.12;;
20976;SDS011;10647;51.016;3.720;2022-09-03T19:58:53;5.85;;;3.92;;
20976;SDS011;10647;51.016;3.720;2022-09-03T20:01:36;6.35;;;3.90;;
20976;SDS011;10647;51.016;3.720;2022-09-03T20:04:36;7.50;;;3.90;;
20976;SDS011;10647;51.016;3.720;2022-09-03T20:07:41;5.15;;;3.40;;
20976;SDS011;10647;51.016;3.720;2022-09-03T20:10:29;6.50;;;4.08;;
20976;SDS011;10647;51.016;3.720;2022-09-03T20:15:49;5.20;;;4.20;;
20976;SDS011;10647;51.016;3.720;2022-09-03T20:18:45;5.08;;;3.70;;
20976;SDS011;10647;51.016;3.720;2022-09-03T20:24:28;6.00;;;3.65;;
20976;SDS011;10647;51.016;3.720;2022-09-03T20:30:01;5.97;;;3.90;;
20976;SDS011;10647;51.016;3.720;2022-09-03T20:32:43;7.22;;;4.10;;
20976;SDS011;10647;51.016;3.720;2022-09-03T20:35:34;8.63;;;4.05;;